EKBI/BLL METAR and TAF weather

Enter ICAO airport designator
Station Type Date Time Source
EKBI METAR 2018/07/21 12:50 UTC NOAA

EKBI 211250Z AUTO 29009KT 260V340 9999NDV NCD 25/08 Q1012


Station Type Date Time Source
EKBI Decoded METAR 2018/07/21 12:50 UTC NOAA

Billund Lufthavn, Denmark (EKBI) 55-44N 009-10E 79M
Jul 21, 2018 - 08:50 AM EDT / 2018.07.21 1250 UTC
Wind: from the WNW (290 degrees) at 10 MPH (9 KT) (direction variable):0
Temperature: 77 F (25 C)
Dew Point: 46 F (8 C)
Relative Humidity: 33%
Pressure (altimeter): 29.88 in. Hg (1012 hPa)
ob: EKBI 211250Z AUTO 29009KT 260V340 9999NDV NCD 25/08 Q1012
cycle: 13

Station Type Date Time Source
EKBI TAF 2018/07/21 12:15 UTC NOAA

TAF TAF EKBI 211101Z 2112/2212 29008KT CAVOK


Example: see airport list